Tdw — WDJ5589 — position and weather

sailwx.info

Track history (hours):
 
Tides and Currents Weather Stations Pressure Air Temp Water Temp Dewpoint Dewpoint Depression Visibility Wind Speed Wind Dir Waves Ship Positions

Tdw

Owner: Dean Equipment Inc., Harvey, LA. More information available from US FCC via Universal Licensing System and Coast Guard Vessel Documentation Center.

Last reported at 2017-Nov-09 01:22 UTC. Time now 2017-Nov-17 21:10 UTC.
Position N 29°34' W 090°28'.
Warning: this ship's position is 8 days out of date.

Length 14 m.

Type: Tug. MMSI: 367789330.

Date/timePositionNaut miles runAvg speedWind from/ knotsBaromVisibWave heightAir tempDewpointWater temp
2017-Nov-09 01:22N 29°34' W 090°28'2 6.4
2017-Nov-09 01:00N 29°34' W 090°31'3 6.0
2017-Nov-09 00:30N 29°34' W 090°34'3 5.7
2017-Nov-09 00:01N 29°35' W 090°38'3 5.4
2017-Nov-08 23:30N 29°36' W 090°40'2 3.9
2017-Nov-08 23:00N 29°36' W 090°43'2 3.7
2017-Nov-08 22:30N 29°34' W 090°43'2 4.8
2017-Nov-08 22:00N 29°33' W 090°45'3 6.0
2017-Nov-08 21:30N 29°32' W 090°49'4 6.4
2017-Nov-08 20:57N 29°32' W 090°53'3 6.5
2017-Nov-08 20:29N 29°34' W 090°56'58 2.2
2017-Nov-07 18:17N 29°50' W 092°00'2 6.8
2017-Nov-07 18:00N 29°49' W 092°02'3 6.4
2017-Nov-07 17:30N 29°48' W 092°06'3 5.9
2017-Nov-07 17:00N 29°47' W 092°09'3 6.0
2017-Nov-07 16:30N 29°47' W 092°12'3 6.7
2017-Nov-07 16:00N 29°48' W 092°16'3 6.2
2017-Nov-07 15:31N 29°50' W 092°19'3 5.3
2017-Nov-07 15:00N 29°51' W 092°22'132 3.3
2017-Nov-05 22:18N 29°30' W 094°52'2 5.7
2017-Nov-05 21:59N 29°31' W 094°53'3 6.1
2017-Nov-05 21:30N 29°34' W 094°55'3 6.2
2017-Nov-05 21:00N 29°36' W 094°57'3 6.8
2017-Nov-05 20:29N 29°39' W 094°58'3 6.9
2017-Nov-05 20:00N 29°42' W 095°01'4 6.3
2017-Nov-05 19:21N 29°45' W 095°04'2 4.6
2017-Nov-05 19:00N 29°47' W 095°05'0 0.1
2017-Nov-05 18:29N 29°47' W 095°05'0 0.0
2017-Nov-05 18:00N 29°47' W 095°05'0 0.1
2017-Nov-05 17:30N 29°47' W 095°05'0 0.0
2017-Nov-05 17:00N 29°47' W 095°05'  
2017-Nov-01 23:23N 29°47' W 095°04'1 0.0
2017-Oct-31 15:40N 29°46' W 095°05'0 0.0
2017-Oct-31 15:30N 29°46' W 095°05'2 4.6
2017-Oct-31 15:00N 29°44' W 095°03'2 4.5
2017-Oct-31 14:30N 29°43' W 095°01'2 4.6
2017-Oct-31 14:00N 29°41' W 094°59'2 3.1
2017-Oct-31 13:30N 29°40' W 094°58'2 4.7
2017-Oct-31 13:00N 29°38' W 094°58'3 5.6
2017-Oct-31 12:30N 29°35' W 094°56'3 5.9
2017-Oct-31 12:00N 29°33' W 094°54'71 3.9
2017-Oct-30 18:02N 30°04' W 093°41'3 4.2
2017-Oct-30 17:16N 30°04' W 093°37'2 5.4
2017-Oct-30 16:56N 30°04' W 093°35'2 5.2
2017-Oct-30 16:28N 30°04' W 093°33'2 5.2
2017-Oct-30 16:00N 30°04' W 093°30'3 5.2
2017-Oct-30 15:30N 30°04' W 093°27'2 4.4
2017-Oct-30 15:00N 30°04' W 093°24'4 3.6
2017-Oct-30 14:00N 30°05' W 093°20'2 4.1
2017-Oct-30 13:30N 30°06' W 093°18'2 3.2
2017-Oct-30 13:00N 30°05' W 093°17'1 2.9
2017-Oct-30 12:30N 30°04' W 093°16'0 0.0
2017-Oct-30 12:00N 30°04' W 093°16'0 0.0
2017-Oct-30 11:30N 30°04' W 093°16'1 1.3
2017-Oct-30 11:00N 30°03' W 093°16'1 2.3
2017-Oct-30 10:30N 30°02' W 093°15'2 4.5
2017-Oct-30 10:00N 30°00' W 093°14'3 5.1
2017-Oct-30 09:30N 29°58' W 093°12'3 5.2
2017-Oct-30 09:00N 29°56' W 093°10'3 5.1
2017-Oct-30 08:30N 29°56' W 093°07'1 2.9
2017-Oct-30 08:00N 29°56' W 093°05'2 4.2
2017-Oct-30 07:30N 29°56' W 093°03'  
Track history (hours):
 
Tides and Currents Weather Stations Pressure Air Temp Water Temp Dewpoint Dewpoint Depression Visibility Wind Speed Wind Dir Waves Ship Positions

Tdw

Owner: Dean Equipment Inc., Harvey, LA. More information available from US FCC via Universal Licensing System and Coast Guard Vessel Documentation Center.

Last reported at 2017-Nov-09 01:22 UTC. Time now 2017-Nov-17 21:10 UTC.
Position N 29°34' W 090°28'.
Warning: this ship's position is 8 days out of date.

Length 14 m.

Type: Tug. MMSI: 367789330.

Date/timePositionNaut miles runAvg speedWind from/ knotsBaromVisibWave heightAir tempDewpointWater temp
2017-Nov-09 01:22N 29°34' W 090°28'2 6.4
2017-Nov-09 01:00N 29°34' W 090°31'3 6.0
2017-Nov-09 00:30N 29°34' W 090°34'3 5.7
2017-Nov-09 00:01N 29°35' W 090°38'3 5.4
2017-Nov-08 23:30N 29°36' W 090°40'2 3.9
2017-Nov-08 23:00N 29°36' W 090°43'2 3.7
2017-Nov-08 22:30N 29°34' W 090°43'2 4.8
2017-Nov-08 22:00N 29°33' W 090°45'3 6.0
2017-Nov-08 21:30N 29°32' W 090°49'4 6.4
2017-Nov-08 20:57N 29°32' W 090°53'3 6.5
2017-Nov-08 20:29N 29°34' W 090°56'58 2.2
2017-Nov-07 18:17N 29°50' W 092°00'2 6.8
2017-Nov-07 18:00N 29°49' W 092°02'3 6.4
2017-Nov-07 17:30N 29°48' W 092°06'3 5.9
2017-Nov-07 17:00N 29°47' W 092°09'3 6.0
2017-Nov-07 16:30N 29°47' W 092°12'3 6.7
2017-Nov-07 16:00N 29°48' W 092°16'3 6.2
2017-Nov-07 15:31N 29°50' W 092°19'3 5.3
2017-Nov-07 15:00N 29°51' W 092°22'132 3.3
2017-Nov-05 22:18N 29°30' W 094°52'2 5.7
2017-Nov-05 21:59N 29°31' W 094°53'3 6.1
2017-Nov-05 21:30N 29°34' W 094°55'3 6.2
2017-Nov-05 21:00N 29°36' W 094°57'3 6.8
2017-Nov-05 20:29N 29°39' W 094°58'3 6.9
2017-Nov-05 20:00N 29°42' W 095°01'4 6.3
2017-Nov-05 19:21N 29°45' W 095°04'2 4.6
2017-Nov-05 19:00N 29°47' W 095°05'0 0.1
2017-Nov-05 18:29N 29°47' W 095°05'0 0.0
2017-Nov-05 18:00N 29°47' W 095°05'0 0.1
2017-Nov-05 17:30N 29°47' W 095°05'0 0.0
2017-Nov-05 17:00N 29°47' W 095°05'  
2017-Nov-01 23:23N 29°47' W 095°04'1 0.0
2017-Oct-31 15:40N 29°46' W 095°05'0 0.0
2017-Oct-31 15:30N 29°46' W 095°05'2 4.6
2017-Oct-31 15:00N 29°44' W 095°03'2 4.5
2017-Oct-31 14:30N 29°43' W 095°01'2 4.6
2017-Oct-31 14:00N 29°41' W 094°59'2 3.1
2017-Oct-31 13:30N 29°40' W 094°58'2 4.7
2017-Oct-31 13:00N 29°38' W 094°58'3 5.6
2017-Oct-31 12:30N 29°35' W 094°56'3 5.9
2017-Oct-31 12:00N 29°33' W 094°54'71 3.9
2017-Oct-30 18:02N 30°04' W 093°41'3 4.2
2017-Oct-30 17:16N 30°04' W 093°37'2 5.4
2017-Oct-30 16:56N 30°04' W 093°35'2 5.2
2017-Oct-30 16:28N 30°04' W 093°33'2 5.2
2017-Oct-30 16:00N 30°04' W 093°30'3 5.2
2017-Oct-30 15:30N 30°04' W 093°27'2 4.4
2017-Oct-30 15:00N 30°04' W 093°24'4 3.6
2017-Oct-30 14:00N 30°05' W 093°20'2 4.1
2017-Oct-30 13:30N 30°06' W 093°18'2 3.2
2017-Oct-30 13:00N 30°05' W 093°17'1 2.9
2017-Oct-30 12:30N 30°04' W 093°16'0 0.0
2017-Oct-30 12:00N 30°04' W 093°16'0 0.0
2017-Oct-30 11:30N 30°04' W 093°16'1 1.3
2017-Oct-30 11:00N 30°03' W 093°16'1 2.3
2017-Oct-30 10:30N 30°02' W 093°15'2 4.5
2017-Oct-30 10:00N 30°00' W 093°14'3 5.1
2017-Oct-30 09:30N 29°58' W 093°12'3 5.2
2017-Oct-30 09:00N 29°56' W 093°10'3 5.1
2017-Oct-30 08:30N 29°56' W 093°07'1 2.9
2017-Oct-30 08:00N 29°56' W 093°05'2 4.2
2017-Oct-30 07:30N 29°56' W 093°03'  

Dump ship's entire track history